Time;durP1;ratioP1;P1;durP2;ratioP2;P2;SDS_P1;SDS_P2;PMS_P1;PMS_P2;Temp;Humidity;BMP_temperature;BMP_pressure;BME280_temperature;BME280_humidity;BME280_pressure;Samples;Min_cycle;Max_cycle;Signal;HPM_P1;HPM_P2
2022/02/07 00:01:18;0.00;0.00;0.62;0.00;0.00;0.62;1.60;0.90;;;20.80;28.90;;;;;;2249076;61;20404;-61
2022/02/07 00:04:05;0.00;0.00;0.62;0.00;0.00;0.62;1.53;0.97;;;20.80;28.90;;;;;;2249589;61;20360;-61
2022/02/07 00:06:49;0.00;0.00;0.62;0.00;0.00;0.62;2.80;0.70;;;20.80;28.90;;;;;;2249434;61;20388;-60
2022/02/07 00:09:34;0.00;0.00;0.62;0.00;0.00;0.62;2.00;0.77;;;20.80;28.90;;;;;;2249438;61;20589;-61
2022/02/07 00:12:19;0.00;0.00;0.62;0.00;0.00;0.62;1.50;0.70;;;20.80;28.80;;;;;;2249772;61;20728;-61
2022/02/07 00:15:04;0.00;0.00;0.62;0.00;0.00;0.62;3.10;0.93;;;20.80;28.80;;;;;;2249201;61;20756;-61
2022/02/07 00:17:50;0.00;0.00;0.62;0.00;0.00;0.62;2.17;1.03;;;20.80;28.70;;;;;;2249595;61;20756;-61
2022/02/07 00:20:36;0.00;0.00;0.62;0.00;0.00;0.62;2.27;1.07;;;20.80;28.50;;;;;;2249872;61;20447;-61
2022/02/07 00:23:21;0.00;0.00;0.62;0.00;0.00;0.62;2.67;0.90;;;20.80;28.40;;;;;;2249159;61;20356;-61
2022/02/07 00:26:06;0.00;0.00;0.62;0.00;0.00;0.62;1.60;0.97;;;20.80;28.30;;;;;;2249517;61;20420;-61
2022/02/07 00:28:53;0.00;0.00;0.62;0.00;0.00;0.62;3.40;1.20;;;20.70;28.20;;;;;;2249573;61;20388;-61
2022/02/07 00:31:38;0.00;0.00;0.62;0.00;0.00;0.62;2.43;0.90;;;20.70;28.10;;;;;;2249393;61;20364;-61
2022/02/07 00:34:23;0.00;0.00;0.62;0.00;0.00;0.62;2.00;0.80;;;20.70;28.00;;;;;;2249281;61;20504;-61
2022/02/07 00:37:08;0.00;0.00;0.62;0.00;0.00;0.62;2.03;1.00;;;20.60;27.80;;;;;;2248949;61;20456;-60
2022/02/07 00:40:01;0.00;0.00;0.62;0.00;0.00;0.62;2.93;0.90;;;20.60;27.60;;;;;;2249570;61;20364;-61
2022/02/07 00:48:25;0.00;0.00;0.62;0.00;0.00;0.62;1.60;0.80;;;20.50;27.40;;;;;;2249528;61;20392;-61
2022/02/07 00:51:13;0.00;0.00;0.62;0.00;0.00;0.62;1.67;0.90;;;20.40;27.30;;;;;;2249124;61;20368;-61
2022/02/07 00:53:58;0.00;0.00;0.62;0.00;0.00;0.62;2.90;1.00;;;20.40;27.20;;;;;;2249231;61;20372;-61
2022/02/07 00:56:44;0.00;0.00;0.62;0.00;0.00;0.62;3.00;1.00;;;20.30;26.80;;;;;;2249138;61;20598;-61
2022/02/07 00:59:29;0.00;0.00;0.62;0.00;0.00;0.62;1.93;1.00;;;20.30;26.80;;;;;;2249286;61;20369;-61
2022/02/07 01:02:14;0.00;0.00;0.62;0.00;0.00;0.62;2.23;1.00;;;20.30;26.80;;;;;;2249042;61;20712;-61
2022/02/07 01:04:58;0.00;0.00;0.62;0.00;0.00;0.62;2.17;1.27;;;20.20;26.70;;;;;;2249266;61;20361;-61
2022/02/07 01:07:48;0.00;0.00;0.62;0.00;0.00;0.62;2.37;0.90;;;20.20;26.80;;;;;;2248389;61;20396;-61
2022/02/07 01:10:46;0.00;0.00;0.62;0.00;0.00;0.62;1.80;0.70;;;20.10;26.70;;;;;;2248990;61;20461;-61
2022/02/07 01:13:54;0.00;0.00;0.62;0.00;0.00;0.62;1.43;0.80;;;20.10;26.50;;;;;;2249001;61;20445;-60
2022/02/07 01:17:11;0.00;0.00;0.62;0.00;0.00;0.62;2.27;0.97;;;20.00;26.40;;;;;;2248810;61;20396;-61
2022/02/07 01:20:50;0.00;0.00;0.62;0.00;0.00;0.62;2.23;1.00;;;19.90;26.40;;;;;;2249816;61;20578;-61
2022/02/07 01:48:18;0.00;0.00;0.62;0.00;0.00;0.62;1.77;0.70;;;19.40;26.20;;;;;;2248801;61;20477;-61
2022/02/07 01:51:14;0.00;0.00;0.62;0.00;0.00;0.62;2.50;0.80;;;19.40;26.00;;;;;;2248984;61;20448;-60
2022/02/07 01:56:59;0.00;0.00;0.62;0.00;0.00;0.62;2.50;1.10;;;19.20;26.00;;;;;;2249336;61;20404;-61
2022/02/07 01:59:44;0.00;0.00;0.62;0.00;0.00;0.62;2.00;0.80;;;19.20;26.00;;;;;;2248464;61;20368;-61
2022/02/07 02:02:32;0.00;0.00;0.62;0.00;0.00;0.62;2.37;0.93;;;19.20;26.00;;;;;;2248820;61;20367;-61
2022/02/07 02:05:17;0.00;0.00;0.62;0.00;0.00;0.62;2.13;0.80;;;19.10;26.00;;;;;;2248916;61;20768;-61
2022/02/07 02:08:05;0.00;0.00;0.62;0.00;0.00;0.62;1.70;1.03;;;19.20;26.00;;;;;;2248525;61;20392;-59
2022/02/07 02:10:52;0.00;0.00;0.62;0.00;0.00;0.62;1.90;1.00;;;19.10;26.00;;;;;;2249160;61;20472;-60
2022/02/07 02:16:36;0.00;0.00;0.62;0.00;0.00;0.62;4.27;1.40;;;19.00;25.90;;;;;;2248844;61;20423;-60
2022/02/07 02:35:20;0.00;0.00;0.62;0.00;0.00;0.62;2.00;0.83;;;18.80;25.80;;;;;;2249444;61;20638;-61
2022/02/07 02:38:12;0.00;0.00;0.62;0.00;0.00;0.62;2.07;0.90;;;18.80;25.80;;;;;;2249344;61;20693;-61
2022/02/07 02:47:05;0.00;0.00;0.62;0.00;0.00;0.62;2.83;0.87;;;18.60;25.60;;;;;;2249855;61;20388;-61
2022/02/07 02:50:03;0.00;0.00;0.62;0.00;0.00;0.62;1.80;0.90;;;18.60;25.60;;;;;;2249913;61;20448;-61
2022/02/07 02:52:50;0.00;0.00;0.62;0.00;0.00;0.62;3.33;1.00;;;18.60;25.80;;;;;;2249180;61;20424;-61
2022/02/07 02:55:38;0.00;0.00;0.62;0.00;0.00;0.62;2.37;1.00;;;18.50;25.80;;;;;;2250134;61;20364;-63
2022/02/07 02:58:25;0.00;0.00;0.62;0.00;0.00;0.62;2.77;1.10;;;18.50;25.80;;;;;;2248946;61;20705;-61
2022/02/07 03:01:13;0.00;0.00;0.62;0.00;0.00;0.62;2.47;1.10;;;18.50;25.80;;;;;;2249498;61;20408;-60
2022/02/07 03:04:12;0.00;0.00;0.62;0.00;0.00;0.62;2.03;0.90;;;18.50;25.80;;;;;;2250265;61;20416;-61
2022/02/07 03:06:57;0.00;0.00;0.62;0.00;0.00;0.62;3.33;0.80;;;18.50;25.80;;;;;;2248971;61;22619;-61
2022/02/07 03:09:48;0.00;0.00;0.62;0.00;0.00;0.62;4.77;0.90;;;18.40;25.80;;;;;;2249525;61;20412;-61
2022/02/07 03:12:44;0.00;0.00;0.62;0.00;0.00;0.62;2.80;1.30;;;18.40;25.80;;;;;;2249690;61;20594;-60
2022/02/07 03:18:52;0.00;0.00;0.62;0.00;0.00;0.62;3.53;1.20;;;18.40;26.00;;;;;;2242568;61;20370;-60
2022/02/07 03:21:38;0.00;0.00;0.62;0.00;0.00;0.62;4.27;0.97;;;18.30;25.90;;;;;;2244574;61;20592;-59
2022/02/07 03:24:23;0.00;0.00;0.62;0.00;0.00;0.62;1.77;0.80;;;18.30;26.00;;;;;;2249148;61;20485;-61
2022/02/07 03:27:16;0.00;0.00;0.62;0.00;0.00;0.62;2.00;1.13;;;18.30;25.90;;;;;;2249239;61;20381;-61
2022/02/07 03:30:10;0.00;0.00;0.62;0.00;0.00;0.62;2.60;0.90;;;18.30;26.00;;;;;;2249384;61;20408;-60
2022/02/07 03:33:01;0.00;0.00;0.62;0.00;0.00;0.62;3.00;1.00;;;18.20;25.90;;;;;;2249700;61;20748;-60
2022/02/07 03:35:47;0.00;0.00;0.62;0.00;0.00;0.62;2.27;1.07;;;18.20;25.90;;;;;;2248589;61;20484;-61
2022/02/07 03:38:32;0.00;0.00;0.62;0.00;0.00;0.62;2.53;0.90;;;18.20;26.00;;;;;;2249362;61;20643;-61
2022/02/07 03:41:16;0.00;0.00;0.62;0.00;0.00;0.62;1.90;0.80;;;18.20;26.00;;;;;;2249385;61;20432;-60
2022/02/07 03:44:04;0.00;0.00;0.62;0.00;0.00;0.62;3.00;1.00;;;18.20;26.00;;;;;;2249029;61;20380;-61
2022/02/07 03:46:51;0.00;0.00;0.62;0.00;0.00;0.62;2.23;1.10;;;18.20;25.90;;;;;;2249359;61;20600;-61
2022/02/07 03:49:40;0.00;0.00;0.62;0.00;0.00;0.62;2.67;1.20;;;18.10;25.90;;;;;;2248913;61;20435;-61
2022/02/07 03:52:27;0.00;0.00;0.62;0.00;0.00;0.62;2.90;0.97;;;18.10;25.90;;;;;;2249402;61;20403;-61
2022/02/07 03:55:12;0.00;0.00;0.62;0.00;0.00;0.62;2.10;1.07;;;18.10;25.90;;;;;;2249937;61;20385;-61
2022/02/07 03:57:58;0.00;0.00;0.62;0.00;0.00;0.62;2.57;0.90;;;18.00;25.90;;;;;;2248673;61;20396;-61
2022/02/07 04:00:43;0.00;0.00;0.62;0.00;0.00;0.62;2.50;0.80;;;18.00;25.90;;;;;;2249364;61;20405;-61
2022/02/07 04:03:58;0.00;0.00;0.62;0.00;0.00;0.62;2.43;0.90;;;18.00;25.90;;;;;;2249151;61;20377;-61
2022/02/07 04:06:43;0.00;0.00;0.62;0.00;0.00;0.62;2.43;1.10;;;17.90;25.90;;;;;;2249090;61;20419;-62
2022/02/07 04:09:40;0.00;0.00;0.62;0.00;0.00;0.62;1.57;0.87;;;17.90;25.90;;;;;;2249433;61;20408;-60
2022/02/07 04:12:28;0.00;0.00;0.62;0.00;0.00;0.62;2.30;1.10;;;17.90;25.90;;;;;;2251507;61;20380;-60
2022/02/07 04:15:19;0.00;0.00;0.62;0.00;0.00;0.62;2.87;1.10;;;17.80;25.90;;;;;;2249224;61;20360;-59
2022/02/07 04:18:11;0.00;0.00;0.62;0.00;0.00;0.62;1.73;0.80;;;17.80;25.90;;;;;;2249352;61;20423;-60
2022/02/07 04:20:57;0.00;0.00;0.62;0.00;0.00;0.62;3.77;0.90;;;17.80;25.90;;;;;;2248978;61;20360;-60
2022/02/07 04:23:41;0.00;0.00;0.62;0.00;0.00;0.62;3.10;1.00;;;17.80;25.90;;;;;;2249604;61;20369;-60
2022/02/07 04:26:51;0.00;0.00;0.62;0.00;0.00;0.62;3.60;1.00;;;17.70;25.80;;;;;;2249040;61;20440;-62
2022/02/07 04:29:37;0.00;0.00;0.62;0.00;0.00;0.62;3.43;1.27;;;17.70;25.80;;;;;;2249648;61;20405;-61
2022/02/07 04:32:22;0.00;0.00;0.62;0.00;0.00;0.62;2.23;1.20;;;17.60;25.70;;;;;;2249508;61;20388;-61
2022/02/07 04:35:08;0.00;0.00;0.62;0.00;0.00;0.62;4.20;1.20;;;17.60;25.80;;;;;;2248586;61;20369;-59
2022/02/07 04:37:54;0.00;0.00;0.62;0.00;0.00;0.62;2.60;1.00;;;17.60;25.90;;;;;;2249507;61;20400;-60
2022/02/07 04:40:39;0.00;0.00;0.62;0.00;0.00;0.62;2.93;1.30;;;17.50;25.90;;;;;;2249187;61;20367;-61
2022/02/07 04:43:24;0.00;0.00;0.62;0.00;0.00;0.62;3.70;1.27;;;17.50;25.90;;;;;;2248921;61;20353;-61
2022/02/07 04:47:06;0.00;0.00;0.62;0.00;0.00;0.62;1.83;1.00;;;17.50;26.00;;;;;;2249052;61;20384;-60
2022/02/07 04:49:42;0.00;0.00;0.62;0.00;0.00;0.62;3.77;1.30;;;17.40;25.90;;;;;;2248246;61;20356;-60
2022/02/07 04:58:36;0.00;0.00;0.62;0.00;0.00;0.62;3.27;1.20;;;17.40;26.10;;;;;;2248848;61;20363;-61
2022/02/07 05:04:19;0.00;0.00;0.62;0.00;0.00;0.62;3.43;1.23;;;17.40;26.20;;;;;;2248435;61;20412;-61
2022/02/07 05:16:27;0.00;0.00;0.62;0.00;0.00;0.62;2.50;1.00;;;17.30;26.20;;;;;;2249662;61;20404;-61
2022/02/07 05:19:19;0.00;0.00;0.62;0.00;0.00;0.62;3.63;1.00;;;17.30;26.30;;;;;;2248425;61;20805;-60
2022/02/07 05:22:30;0.00;0.00;0.62;0.00;0.00;0.62;3.73;1.90;;;17.30;26.30;;;;;;2249253;61;20424;-59
2022/02/07 05:25:33;0.00;0.00;0.62;0.00;0.00;0.62;3.10;1.20;;;17.30;26.40;;;;;;2249436;61;20372;-59
2022/02/07 05:28:27;0.00;0.00;0.62;0.00;0.00;0.62;2.83;1.30;;;17.30;26.30;;;;;;2248711;61;20377;-59
2022/02/07 05:31:52;0.00;0.00;0.62;0.00;0.00;0.62;4.73;1.90;;;17.30;26.40;;;;;;2249346;61;20450;-59
2022/02/07 05:34:54;0.00;0.00;0.62;0.00;0.00;0.62;6.10;2.07;;;17.30;26.30;;;;;;2248443;61;20411;-60
2022/02/07 05:37:57;0.00;0.00;0.62;0.00;0.00;0.62;4.10;1.70;;;17.20;26.10;;;;;;2249242;61;20368;-59
2022/02/07 05:40:59;0.00;0.00;0.62;0.00;0.00;0.62;4.03;1.83;;;17.20;26.10;;;;;;2248494;61;20512;-59
2022/02/07 05:43:50;0.00;0.00;0.62;0.00;0.00;0.62;8.80;1.70;;;17.20;26.10;;;;;;2249406;61;20441;-59
2022/02/07 05:46:58;0.00;0.00;0.62;0.00;0.00;0.62;4.53;1.60;;;17.20;26.20;;;;;;2249622;61;20399;-59
2022/02/07 05:50:05;0.00;0.00;0.62;0.00;0.00;0.62;5.07;1.53;;;17.10;26.10;;;;;;2248743;61;20368;-61
2022/02/07 05:53:11;0.00;0.00;0.62;0.00;0.00;0.62;3.57;1.43;;;17.10;26.10;;;;;;2252144;61;20637;-60
2022/02/07 05:56:09;0.00;0.00;0.62;0.00;0.00;0.62;3.27;1.97;;;17.10;26.10;;;;;;2248052;61;20763;-61
2022/02/07 05:59:03;0.00;0.00;0.62;0.00;0.00;0.62;2.33;1.30;;;17.20;26.30;;;;;;2249435;61;20717;-61
2022/02/07 06:02:20;0.00;0.00;0.62;0.00;0.00;0.62;3.47;1.10;;;17.10;26.30;;;;;;2248115;61;20400;-62
2022/02/07 06:05:11;0.00;0.00;0.62;0.00;0.00;0.62;3.00;1.10;;;17.20;26.40;;;;;;2249572;61;20364;-60
2022/02/07 06:07:56;0.00;0.00;0.62;0.00;0.00;0.62;2.93;1.10;;;17.30;26.50;;;;;;2249921;61;20396;-61
2022/02/07 06:10:43;0.00;0.00;0.62;0.00;0.00;0.62;2.87;1.70;;;17.30;26.50;;;;;;2248874;61;20373;-62
2022/02/07 06:13:28;0.00;0.00;0.62;0.00;0.00;0.62;3.40;1.57;;;17.30;26.60;;;;;;2249694;61;20392;-60
2022/02/07 06:16:22;0.00;0.00;0.62;0.00;0.00;0.62;2.77;1.00;;;17.40;26.70;;;;;;2249519;61;20660;-60
2022/02/07 06:19:14;0.00;0.00;0.62;0.00;0.00;0.62;5.00;1.00;;;17.40;26.70;;;;;;2249306;61;20365;-61
2022/02/07 06:22:00;0.00;0.00;0.62;0.00;0.00;0.62;2.63;1.07;;;17.50;26.70;;;;;;2249701;61;20412;-60
2022/02/07 06:24:46;0.00;0.00;0.62;0.00;0.00;0.62;2.97;1.13;;;17.50;26.70;;;;;;2249443;61;20748;-60
2022/02/07 06:27:32;0.00;0.00;0.62;0.00;0.00;0.62;2.40;1.07;;;17.60;26.80;;;;;;2249433;61;20392;-62
2022/02/07 06:30:19;0.00;0.00;0.62;0.00;0.00;0.62;1.73;0.90;;;17.60;26.80;;;;;;2249917;61;20619;-60
2022/02/07 06:33:07;0.00;0.00;0.62;0.00;0.00;0.62;4.03;1.40;;;17.70;26.80;;;;;;2248859;61;20360;-62
2022/02/07 06:35:53;0.00;0.00;0.62;0.00;0.00;0.62;1.90;0.90;;;17.70;26.80;;;;;;2249428;61;20756;-60
2022/02/07 06:38:38;0.00;0.00;0.62;0.00;0.00;0.62;2.30;0.90;;;17.70;26.80;;;;;;2249843;61;20764;-59
2022/02/07 06:41:24;0.00;0.00;0.62;0.00;0.00;0.62;2.20;1.30;;;17.80;26.80;;;;;;2249283;61;20395;-60
2022/02/07 06:44:10;0.00;0.00;0.62;0.00;0.00;0.62;2.20;1.03;;;17.80;26.80;;;;;;2249578;61;20352;-60
2022/02/07 06:46:56;0.00;0.00;0.62;0.00;0.00;0.62;1.77;0.90;;;17.90;26.90;;;;;;2252226;61;20388;-60
2022/02/07 06:49:44;0.00;0.00;0.62;0.00;0.00;0.62;2.57;0.93;;;17.90;26.80;;;;;;2249249;61;20365;-60
2022/02/07 06:52:28;0.00;0.00;0.62;0.00;0.00;0.62;2.80;1.10;;;17.90;26.80;;;;;;2250230;61;20728;-61
2022/02/07 06:55:13;0.00;0.00;0.62;0.00;0.00;0.62;1.90;1.00;;;18.00;26.90;;;;;;2249228;61;20550;-62
2022/02/07 06:57:57;0.00;0.00;0.62;0.00;0.00;0.62;2.13;1.20;;;18.00;26.80;;;;;;2249488;61;20361;-62
2022/02/07 07:00:42;0.00;0.00;0.62;0.00;0.00;0.62;2.43;1.03;;;18.00;26.80;;;;;;2249880;61;20620;-62
2022/02/07 07:03:32;0.00;0.00;0.62;0.00;0.00;0.62;2.37;1.40;;;18.00;26.80;;;;;;2248989;61;20401;-62
2022/02/07 07:06:18;0.00;0.00;0.62;0.00;0.00;0.62;1.50;0.90;;;18.10;26.80;;;;;;2249368;61;20380;-61
2022/02/07 07:09:09;0.00;0.00;0.62;0.00;0.00;0.62;4.37;0.93;;;18.10;26.80;;;;;;2249379;61;20388;-61
2022/02/07 07:12:02;0.00;0.00;0.62;0.00;0.00;0.62;3.87;0.77;;;18.20;26.90;;;;;;2249111;61;20457;-62
2022/02/07 07:15:04;0.00;0.00;0.62;0.00;0.00;0.62;2.57;1.10;;;18.10;26.80;;;;;;2252369;61;20428;-61
2022/02/07 07:17:49;0.00;0.00;0.62;0.00;0.00;0.62;2.40;1.20;;;18.20;26.80;;;;;;2248855;61;20412;-60
2022/02/07 07:20:35;0.00;0.00;0.62;0.00;0.00;0.62;2.70;1.03;;;18.20;26.80;;;;;;2249385;61;20408;-62
2022/02/07 07:23:21;0.00;0.00;0.62;0.00;0.00;0.62;2.70;1.17;;;18.20;26.80;;;;;;2249690;61;20365;-61
2022/02/07 07:26:10;0.00;0.00;0.62;0.00;0.00;0.62;1.77;0.87;;;18.30;26.90;;;;;;2249107;61;20489;-61
2022/02/07 07:28:56;0.00;0.00;0.62;0.00;0.00;0.62;2.23;1.00;;;18.30;26.90;;;;;;2249767;61;20424;-61
2022/02/07 07:31:46;0.00;0.00;0.62;0.00;0.00;0.62;1.77;0.90;;;18.30;26.90;;;;;;2248979;61;20375;-61
2022/02/07 07:34:31;0.00;0.00;0.62;0.00;0.00;0.62;3.73;1.23;;;18.30;26.80;;;;;;2249319;61;20740;-61
2022/02/07 07:37:21;0.00;0.00;0.62;0.00;0.00;0.62;1.77;0.90;;;18.40;26.90;;;;;;2249746;61;20380;-61
2022/02/07 07:40:10;0.00;0.00;0.62;0.00;0.00;0.62;1.87;0.90;;;18.40;26.90;;;;;;2248722;61;20400;-61
2022/02/07 07:42:56;0.00;0.00;0.62;0.00;0.00;0.62;2.17;0.90;;;18.40;26.90;;;;;;2249298;61;20432;-61
2022/02/07 07:46:07;0.00;0.00;0.62;0.00;0.00;0.62;2.47;1.13;;;18.40;26.90;;;;;;2249659;61;20412;-61
2022/02/07 07:49:17;0.00;0.00;0.62;0.00;0.00;0.62;2.27;0.80;;;18.40;26.80;;;;;;2249179;61;20766;-62
2022/02/07 07:52:31;0.00;0.00;0.62;0.00;0.00;0.62;1.40;0.67;;;18.50;26.90;;;;;;2249668;61;20357;-62
2022/02/07 08:02:01;0.00;0.00;0.62;0.00;0.00;0.62;1.60;0.80;;;18.50;26.90;;;;;;2248716;61;20381;-61
2022/02/07 08:04:47;0.00;0.00;0.62;0.00;0.00;0.62;1.50;0.80;;;18.60;26.90;;;;;;2249173;61;20401;-61
2022/02/07 08:07:37;0.00;0.00;0.62;0.00;0.00;0.62;1.70;0.87;;;18.60;26.90;;;;;;2249892;61;20396;-61
2022/02/07 08:10:42;0.00;0.00;0.62;0.00;0.00;0.62;3.10;0.90;;;18.60;26.90;;;;;;2249028;61;20372;-61
2022/02/07 08:13:30;0.00;0.00;0.62;0.00;0.00;0.62;1.97;0.90;;;18.60;26.90;;;;;;2249395;61;20419;-61
2022/02/07 08:16:18;0.00;0.00;0.62;0.00;0.00;0.62;2.07;0.83;;;18.60;26.90;;;;;;2248556;61;20592;-61
2022/02/07 08:19:07;0.00;0.00;0.62;0.00;0.00;0.62;2.90;1.10;;;18.60;26.90;;;;;;2249620;61;20412;-61
2022/02/07 08:21:52;0.00;0.00;0.62;0.00;0.00;0.62;2.37;1.00;;;18.70;27.00;;;;;;2249924;61;20703;-61
2022/02/07 08:24:36;0.00;0.00;0.62;0.00;0.00;0.62;1.77;0.83;;;18.70;26.90;;;;;;2248649;61;20368;-61
2022/02/07 08:27:24;0.00;0.00;0.62;0.00;0.00;0.62;2.70;1.10;;;18.70;26.90;;;;;;2249564;61;20408;-61
2022/02/07 08:30:11;0.00;0.00;0.62;0.00;0.00;0.62;1.80;0.80;;;18.70;26.90;;;;;;2249673;61;20365;-61
2022/02/07 08:32:58;0.00;0.00;0.62;0.00;0.00;0.62;1.90;0.90;;;18.80;27.00;;;;;;2249294;61;20365;-61
2022/02/07 08:35:42;0.00;0.00;0.62;0.00;0.00;0.62;1.90;1.03;;;18.80;27.00;;;;;;2249767;61;20368;-60
2022/02/07 08:38:28;0.00;0.00;0.62;0.00;0.00;0.62;2.53;1.30;;;18.80;27.00;;;;;;2249023;61;20384;-62
2022/02/07 08:41:13;0.00;0.00;0.62;0.00;0.00;0.62;1.80;1.00;;;18.80;27.00;;;;;;2249576;61;20440;-61
2022/02/07 08:43:58;0.00;0.00;0.62;0.00;0.00;0.62;2.13;1.20;;;18.90;27.00;;;;;;2249892;61;20587;-61
2022/02/07 08:46:44;0.00;0.00;0.62;0.00;0.00;0.62;1.90;1.00;;;18.90;27.00;;;;;;2248390;61;20408;-61
2022/02/07 08:49:28;0.00;0.00;0.62;0.00;0.00;0.62;2.10;1.03;;;18.90;27.00;;;;;;2249456;61;20385;-61
2022/02/07 08:52:13;0.00;0.00;0.62;0.00;0.00;0.62;1.70;1.00;;;18.90;27.00;;;;;;2249690;61;20376;-61
2022/02/07 08:54:59;0.00;0.00;0.62;0.00;0.00;0.62;1.50;0.90;;;18.90;26.90;;;;;;2249060;61;20359;-61
2022/02/07 08:57:47;0.00;0.00;0.62;0.00;0.00;0.62;2.00;0.90;;;18.90;26.90;;;;;;2249546;61;20419;-61
2022/02/07 09:00:41;0.00;0.00;0.62;0.00;0.00;0.62;1.90;1.00;;;19.00;26.90;;;;;;2249090;61;20396;-61
2022/02/07 09:06:33;0.00;0.00;0.62;0.00;0.00;0.62;3.00;1.37;;;19.00;26.90;;;;;;2249758;61;20411;-62
2022/02/07 09:09:20;0.00;0.00;0.62;0.00;0.00;0.62;2.77;1.20;;;19.00;26.90;;;;;;2248571;61;20392;-61
2022/02/07 09:12:06;0.00;0.00;0.62;0.00;0.00;0.62;1.60;0.90;;;19.00;26.90;;;;;;2249585;61;20397;-60
2022/02/07 09:15:17;0.00;0.00;0.62;0.00;0.00;0.62;2.40;1.10;;;19.00;26.90;;;;;;2249374;61;20400;-59
2022/02/07 09:18:05;0.00;0.00;0.62;0.00;0.00;0.62;1.53;0.90;;;19.10;26.90;;;;;;2249420;61;20399;-60
2022/02/07 09:20:51;0.00;0.00;0.62;0.00;0.00;0.62;2.30;1.10;;;19.10;26.90;;;;;;2249892;61;20404;-60
2022/02/07 09:23:37;0.00;0.00;0.62;0.00;0.00;0.62;2.23;1.00;;;19.10;26.90;;;;;;2248745;61;20364;-60
2022/02/07 09:26:22;0.00;0.00;0.62;0.00;0.00;0.62;2.30;1.43;;;19.10;26.90;;;;;;2249361;61;20652;-59
2022/02/07 09:29:07;0.00;0.00;0.62;0.00;0.00;0.62;2.20;1.23;;;19.10;26.90;;;;;;2249304;61;20380;-61
2022/02/07 09:31:52;0.00;0.00;0.62;0.00;0.00;0.62;1.57;0.93;;;19.10;27.00;;;;;;2249220;61;20404;-61
2022/02/07 09:34:37;0.00;0.00;0.62;0.00;0.00;0.62;2.00;1.20;;;19.10;26.90;;;;;;2249374;61;20360;-61
2022/02/07 09:37:22;0.00;0.00;0.62;0.00;0.00;0.62;2.17;1.13;;;19.20;27.00;;;;;;2250464;61;20380;-61
2022/02/07 09:40:09;0.00;0.00;0.62;0.00;0.00;0.62;1.93;0.90;;;19.20;27.00;;;;;;2250770;61;20368;-60
2022/02/07 09:42:59;0.00;0.00;0.62;0.00;0.00;0.62;2.93;1.00;;;19.20;27.00;;;;;;2251044;61;20411;-60
2022/02/07 09:45:45;0.00;0.00;0.62;0.00;0.00;0.62;2.50;1.17;;;19.20;27.00;;;;;;2250117;61;20426;-60
2022/02/07 09:48:29;0.00;0.00;0.62;0.00;0.00;0.62;4.03;1.37;;;19.20;27.00;;;;;;2250654;61;20380;-60
2022/02/07 09:51:14;0.00;0.00;0.62;0.00;0.00;0.62;1.50;0.87;;;19.30;27.00;;;;;;2250895;61;20364;-61
2022/02/07 09:54:00;0.00;0.00;0.62;0.00;0.00;0.62;2.13;1.10;;;19.30;27.10;;;;;;2250372;61;20368;-60
2022/02/07 09:56:46;0.00;0.00;0.62;0.00;0.00;0.62;1.90;1.00;;;19.30;27.10;;;;;;2250675;61;20868;-60
2022/02/07 09:59:31;0.00;0.00;0.62;0.00;0.00;0.62;2.43;0.97;;;19.30;27.10;;;;;;2250408;61;20392;-62
2022/02/07 10:02:24;0.00;0.00;0.62;0.00;0.00;0.62;1.70;0.90;;;19.40;27.20;;;;;;2250654;61;20412;-62
2022/02/07 10:05:18;0.00;0.00;0.62;0.00;0.00;0.62;2.10;1.00;;;19.40;27.20;;;;;;2250917;61;20353;-62
2022/02/07 10:08:10;0.00;0.00;0.62;0.00;0.00;0.62;1.57;0.80;;;19.40;27.20;;;;;;2249882;61;20396;-62
2022/02/07 10:11:17;0.00;0.00;0.62;0.00;0.00;0.62;1.80;0.90;;;19.50;27.30;;;;;;2250711;61;20365;-60
2022/02/07 10:14:09;0.00;0.00;0.62;0.00;0.00;0.62;2.90;1.40;;;19.50;27.30;;;;;;2250532;61;20480;-61
2022/02/07 10:17:30;0.00;0.00;0.62;0.00;0.00;0.62;2.30;1.20;;;19.50;27.30;;;;;;2250482;61;20388;-61
2022/02/07 10:34:32;0.00;0.00;0.62;0.00;0.00;0.62;1.80;1.20;;;19.60;27.30;;;;;;2250102;61;20626;-61
2022/02/07 10:38:50;0.00;0.00;0.62;0.00;0.00;0.62;2.20;1.37;;;19.70;27.20;;;;;;2250406;61;20660;-61
2022/02/07 10:47:27;0.00;0.00;0.62;0.00;0.00;0.62;1.83;0.93;;;19.80;27.20;;;;;;2249893;61;20640;-62
2022/02/07 10:50:14;0.00;0.00;0.62;0.00;0.00;0.62;2.07;0.80;;;19.80;27.20;;;;;;2250294;61;20583;-62
2022/02/07 10:53:02;0.00;0.00;0.62;0.00;0.00;0.62;2.57;1.33;;;19.90;27.20;;;;;;2249638;61;20369;-61
2022/02/07 10:55:47;0.00;0.00;0.62;0.00;0.00;0.62;4.77;1.10;;;19.90;27.30;;;;;;2249650;61;20796;-61
2022/02/07 10:58:33;0.00;0.00;0.62;0.00;0.00;0.62;1.50;0.80;;;19.90;27.30;;;;;;2249918;61;20765;-61
2022/02/07 11:01:25;0.00;0.00;0.62;0.00;0.00;0.62;2.23;1.17;;;19.90;27.30;;;;;;2249681;61;20361;-61
2022/02/07 11:04:14;0.00;0.00;0.62;0.00;0.00;0.62;2.47;1.10;;;20.00;27.40;;;;;;2250141;61;20377;-61
2022/02/07 11:07:01;0.00;0.00;0.62;0.00;0.00;0.62;2.00;1.07;;;20.00;27.50;;;;;;2249269;61;20392;-61
2022/02/07 11:10:05;0.00;0.00;0.62;0.00;0.00;0.62;2.30;0.90;;;20.00;27.50;;;;;;2249730;61;20633;-61
2022/02/07 11:16:06;0.00;0.00;0.62;0.00;0.00;0.62;2.23;0.90;;;20.10;27.60;;;;;;2249560;61;20419;-62
2022/02/07 11:19:32;0.00;0.00;0.62;0.00;0.00;0.62;2.47;0.80;;;20.20;27.60;;;;;;2250056;61;20363;-60
2022/02/07 11:22:12;0.00;0.00;0.62;0.00;0.00;0.62;1.60;0.90;;;20.20;27.60;;;;;;2249449;61;20360;-60
2022/02/07 11:25:42;0.00;0.00;0.62;0.00;0.00;0.62;1.90;1.10;;;20.20;27.60;;;;;;2249618;61;20361;-60
2022/02/07 11:28:21;0.00;0.00;0.62;0.00;0.00;0.62;2.53;1.07;;;20.30;27.70;;;;;;2249874;61;20391;-60
2022/02/07 11:31:08;0.00;0.00;0.62;0.00;0.00;0.62;2.40;1.30;;;20.40;27.70;;;;;;2249620;61;20600;-60
2022/02/07 11:34:02;0.00;0.00;0.62;0.00;0.00;0.62;2.10;1.30;;;20.40;27.70;;;;;;2250186;61;20460;-60
2022/02/07 11:36:47;0.00;0.00;0.62;0.00;0.00;0.62;1.60;0.80;;;20.50;27.70;;;;;;2248978;61;20380;-60
2022/02/07 11:39:41;0.00;0.00;0.62;0.00;0.00;0.62;2.60;1.07;;;20.50;27.70;;;;;;2249714;61;20618;-60
2022/02/07 11:42:28;0.00;0.00;0.62;0.00;0.00;0.62;1.73;0.80;;;20.60;27.70;;;;;;2249839;61;20356;-62
2022/02/07 11:45:14;0.00;0.00;0.62;0.00;0.00;0.62;1.40;0.80;;;20.60;27.70;;;;;;2249306;61;20421;-61
2022/02/07 11:48:09;0.00;0.00;0.62;0.00;0.00;0.62;2.23;1.13;;;20.60;27.60;;;;;;2249461;61;20404;-61
2022/02/07 11:50:57;0.00;0.00;0.62;0.00;0.00;0.62;2.23;1.00;;;20.70;27.60;;;;;;2249096;61;20427;-61
2022/02/07 11:53:49;0.00;0.00;0.62;0.00;0.00;0.62;1.60;0.90;;;20.70;27.50;;;;;;2249753;61;20357;-62
2022/02/07 11:59:38;0.00;0.00;0.62;0.00;0.00;0.62;1.87;0.80;;;20.80;27.40;;;;;;2249057;61;20404;-60
2022/02/07 12:02:34;0.00;0.00;0.62;0.00;0.00;0.62;1.73;1.10;;;20.80;27.30;;;;;;2249822;61;20588;-61
2022/02/07 12:05:22;0.00;0.00;0.62;0.00;0.00;0.62;1.80;0.80;;;20.80;27.20;;;;;;2249432;61;20357;-60
2022/02/07 12:08:14;0.00;0.00;0.62;0.00;0.00;0.62;1.57;0.80;;;20.90;27.30;;;;;;2249662;61;20452;-62
2022/02/07 12:11:09;0.00;0.00;0.62;0.00;0.00;0.62;2.10;1.27;;;20.90;27.20;;;;;;2249554;61;20357;-62
2022/02/07 12:13:55;0.00;0.00;0.62;0.00;0.00;0.62;1.97;0.97;;;20.90;27.20;;;;;;2248984;61;20360;-61
2022/02/07 12:16:46;0.00;0.00;0.62;0.00;0.00;0.62;3.23;1.10;;;20.90;27.20;;;;;;2249629;61;20380;-60
2022/02/07 12:19:37;0.00;0.00;0.62;0.00;0.00;0.62;2.07;1.27;;;20.90;27.20;;;;;;2249618;61;20360;-60
2022/02/07 12:22:23;0.00;0.00;0.62;0.00;0.00;0.62;2.23;1.00;;;21.00;27.30;;;;;;2249397;61;20361;-59
2022/02/07 12:25:11;0.00;0.00;0.62;0.00;0.00;0.62;1.90;1.00;;;21.00;27.30;;;;;;2249950;61;20365;-60
2022/02/07 12:27:57;0.00;0.00;0.62;0.00;0.00;0.62;2.10;1.30;;;21.00;27.30;;;;;;2248811;61;20703;-60
2022/02/07 12:30:59;0.00;0.00;0.62;0.00;0.00;0.62;1.60;0.83;;;21.00;27.30;;;;;;2249698;61;20397;-61
2022/02/07 12:33:46;0.00;0.00;0.62;0.00;0.00;0.62;3.07;1.20;;;21.00;27.30;;;;;;2249737;61;20356;-61
2022/02/07 12:36:32;0.00;0.00;0.62;0.00;0.00;0.62;2.03;0.90;;;21.00;27.30;;;;;;2249129;61;20380;-61
2022/02/07 12:39:18;0.00;0.00;0.62;0.00;0.00;0.62;1.73;0.93;;;21.00;27.30;;;;;;2249675;61;20349;-61
2022/02/07 12:42:07;0.00;0.00;0.62;0.00;0.00;0.62;1.83;0.97;;;21.00;27.30;;;;;;2249405;61;20368;-61
2022/02/07 12:44:58;0.00;0.00;0.62;0.00;0.00;0.62;1.67;0.90;;;21.00;27.30;;;;;;2249241;61;20767;-61
2022/02/07 12:47:45;0.00;0.00;0.62;0.00;0.00;0.62;2.23;0.90;;;21.00;27.20;;;;;;2249852;61;20604;-61
2022/02/07 12:50:29;0.00;0.00;0.62;0.00;0.00;0.62;1.93;0.93;;;21.10;27.20;;;;;;2248870;61;20575;-61
2022/02/07 12:53:17;0.00;0.00;0.62;0.00;0.00;0.62;1.80;1.00;;;21.10;27.20;;;;;;2249576;61;20372;-61
2022/02/07 12:56:05;0.00;0.00;0.62;0.00;0.00;0.62;1.70;0.80;;;21.10;27.20;;;;;;2249651;61;20396;-61
2022/02/07 12:58:54;0.00;0.00;0.62;0.00;0.00;0.62;1.87;0.93;;;21.10;27.20;;;;;;2249136;61;20492;-59
2022/02/07 13:01:42;0.00;0.00;0.62;0.00;0.00;0.62;1.63;1.03;;;21.10;27.20;;;;;;2249727;61;20392;-60
2022/02/07 13:04:27;0.00;0.00;0.62;0.00;0.00;0.62;1.40;0.80;;;21.20;27.20;;;;;;2249239;61;20384;-60
2022/02/07 13:07:16;0.00;0.00;0.62;0.00;0.00;0.62;1.67;0.93;;;21.20;27.30;;;;;;2249249;61;20774;-61
2022/02/07 13:10:04;0.00;0.00;0.62;0.00;0.00;0.62;1.70;0.93;;;21.20;27.80;;;;;;2249624;61;20380;-62